sensor_id;sensor_type;location;lat;lon;timestamp;temperature;humidity
1355;DHT22;671;48.972;9.276;2023-09-12T00:00:05;18.50;99.90
1355;DHT22;671;48.972;9.276;2023-09-12T00:02:32;18.50;99.90
1355;DHT22;671;48.972;9.276;2023-09-12T00:04:58;18.50;99.90
1355;DHT22;671;48.972;9.276;2023-09-12T00:07:25;18.40;99.90
1355;DHT22;671;48.972;9.276;2023-09-12T00:09:51;18.40;99.90
1355;DHT22;671;48.972;9.276;2023-09-12T00:12:22;18.40;99.90
1355;DHT22;671;48.972;9.276;2023-09-12T00:14:49;18.40;99.90
1355;DHT22;671;48.972;9.276;2023-09-12T00:17:15;18.40;99.90
1355;DHT22;671;48.972;9.276;2023-09-12T00:19:43;18.40;99.90
1355;DHT22;671;48.972;9.276;2023-09-12T00:22:09;18.40;99.90
1355;DHT22;671;48.972;9.276;2023-09-12T00:24:36;18.40;99.90
1355;DHT22;671;48.972;9.276;2023-09-12T00:27:04;18.30;99.90
1355;DHT22;671;48.972;9.276;2023-09-12T00:29:32;18.30;99.90
1355;DHT22;671;48.972;9.276;2023-09-12T00:31:58;18.30;99.90
1355;DHT22;671;48.972;9.276;2023-09-12T00:34:25;18.30;99.90
1355;DHT22;671;48.972;9.276;2023-09-12T00:36:51;18.20;99.90
1355;DHT22;671;48.972;9.276;2023-09-12T00:39:18;18.20;99.90
1355;DHT22;671;48.972;9.276;2023-09-12T00:41:45;18.20;99.90
1355;DHT22;671;48.972;9.276;2023-09-12T00:44:11;18.20;99.90
1355;DHT22;671;48.972;9.276;2023-09-12T00:46:38;18.20;99.90
1355;DHT22;671;48.972;9.276;2023-09-12T00:49:06;18.10;99.90
1355;DHT22;671;48.972;9.276;2023-09-12T00:51:34;18.10;99.90
1355;DHT22;671;48.972;9.276;2023-09-12T00:54:01;18.10;99.90
1355;DHT22;671;48.972;9.276;2023-09-12T00:56:28;18.10;99.90
1355;DHT22;671;48.972;9.276;2023-09-12T00:58:55;18.00;99.90
1355;DHT22;671;48.972;9.276;2023-09-12T01:01:23;18.00;99.90
1355;DHT22;671;48.972;9.276;2023-09-12T01:03:50;18.00;99.90
1355;DHT22;671;48.972;9.276;2023-09-12T01:06:19;18.00;99.90
1355;DHT22;671;48.972;9.276;2023-09-12T01:08:48;18.00;99.90
1355;DHT22;671;48.972;9.276;2023-09-12T01:11:14;18.00;99.90
1355;DHT22;671;48.972;9.276;2023-09-12T01:13:41;18.00;99.90
1355;DHT22;671;48.972;9.276;2023-09-12T01:16:07;17.90;99.90
1355;DHT22;671;48.972;9.276;2023-09-12T01:18:34;17.90;99.90
1355;DHT22;671;48.972;9.276;2023-09-12T01:21:05;17.80;99.90
1355;DHT22;671;48.972;9.276;2023-09-12T01:26:48;17.80;99.90
1355;DHT22;671;48.972;9.276;2023-09-12T01:29:16;17.80;99.90
1355;DHT22;671;48.972;9.276;2023-09-12T01:31:45;17.70;99.90
1355;DHT22;671;48.972;9.276;2023-09-12T01:34:12;17.70;99.90
1355;DHT22;671;48.972;9.276;2023-09-12T01:36:39;17.70;99.90
1355;DHT22;671;48.972;9.276;2023-09-12T01:39:05;17.80;99.90
1355;DHT22;671;48.972;9.276;2023-09-12T01:41:35;17.80;99.90
1355;DHT22;671;48.972;9.276;2023-09-12T01:44:04;17.70;99.90
1355;DHT22;671;48.972;9.276;2023-09-12T01:46:32;17.70;99.90
1355;DHT22;671;48.972;9.276;2023-09-12T01:49:00;17.70;99.90
1355;DHT22;671;48.972;9.276;2023-09-12T01:51:28;17.70;99.90
1355;DHT22;671;48.972;9.276;2023-09-12T01:53:55;17.60;99.90
1355;DHT22;671;48.972;9.276;2023-09-12T01:56:22;17.60;99.90
1355;DHT22;671;48.972;9.276;2023-09-12T01:58:50;17.60;99.90
1355;DHT22;671;48.972;9.276;2023-09-12T02:01:16;17.60;99.90
1355;DHT22;671;48.972;9.276;2023-09-12T02:03:42;17.60;99.90
1355;DHT22;671;48.972;9.276;2023-09-12T02:06:09;17.60;99.90
1355;DHT22;671;48.972;9.276;2023-09-12T02:08:35;17.50;99.90
1355;DHT22;671;48.972;9.276;2023-09-12T02:11:02;17.50;99.90
1355;DHT22;671;48.972;9.276;2023-09-12T02:13:28;17.40;99.90
1355;DHT22;671;48.972;9.276;2023-09-12T02:16:01;17.50;99.90
1355;DHT22;671;48.972;9.276;2023-09-12T02:18:29;17.40;99.90
1355;DHT22;671;48.972;9.276;2023-09-12T02:20:55;17.40;99.90
1355;DHT22;671;48.972;9.276;2023-09-12T02:23:24;17.30;99.90
1355;DHT22;671;48.972;9.276;2023-09-12T02:25:50;17.30;99.90
1355;DHT22;671;48.972;9.276;2023-09-12T02:28:17;17.30;99.90
1355;DHT22;671;48.972;9.276;2023-09-12T02:30:43;17.30;99.90
1355;DHT22;671;48.972;9.276;2023-09-12T02:33:10;17.30;99.90
1355;DHT22;671;48.972;9.276;2023-09-12T02:35:36;17.30;99.90
1355;DHT22;671;48.972;9.276;2023-09-12T02:38:03;17.30;99.90
1355;DHT22;671;48.972;9.276;2023-09-12T02:40:29;17.30;99.90
1355;DHT22;671;48.972;9.276;2023-09-12T02:42:56;17.30;99.90
1355;DHT22;671;48.972;9.276;2023-09-12T02:45:22;17.30;99.90
1355;DHT22;671;48.972;9.276;2023-09-12T02:47:49;17.30;99.90
1355;DHT22;671;48.972;9.276;2023-09-12T02:50:15;17.30;99.90
1355;DHT22;671;48.972;9.276;2023-09-12T02:52:42;17.30;99.90
1355;DHT22;671;48.972;9.276;2023-09-12T02:55:09;17.30;99.90
1355;DHT22;671;48.972;9.276;2023-09-12T02:57:36;17.30;99.90
1355;DHT22;671;48.972;9.276;2023-09-12T03:00:04;17.30;99.90
1355;DHT22;671;48.972;9.276;2023-09-12T03:02:33;17.30;99.90
1355;DHT22;671;48.972;9.276;2023-09-12T03:05:00;17.30;99.90
1355;DHT22;671;48.972;9.276;2023-09-12T03:07:29;17.30;99.90
1355;DHT22;671;48.972;9.276;2023-09-12T03:09:55;17.30;99.90
1355;DHT22;671;48.972;9.276;2023-09-12T03:12:22;17.30;99.90
1355;DHT22;671;48.972;9.276;2023-09-12T03:14:48;17.30;99.90
1355;DHT22;671;48.972;9.276;2023-09-12T03:17:15;17.30;99.90
1355;DHT22;671;48.972;9.276;2023-09-12T03:19:41;17.20;99.90
1355;DHT22;671;48.972;9.276;2023-09-12T03:22:08;17.20;99.90
1355;DHT22;671;48.972;9.276;2023-09-12T03:24:34;17.20;99.90
1355;DHT22;671;48.972;9.276;2023-09-12T03:27:01;17.20;99.90
1355;DHT22;671;48.972;9.276;2023-09-12T03:29:27;17.10;99.90
1355;DHT22;671;48.972;9.276;2023-09-12T03:31:54;17.10;99.90
1355;DHT22;671;48.972;9.276;2023-09-12T03:34:20;17.10;99.90
1355;DHT22;671;48.972;9.276;2023-09-12T03:36:47;17.10;99.90
1355;DHT22;671;48.972;9.276;2023-09-12T03:39:13;17.10;99.90
1355;DHT22;671;48.972;9.276;2023-09-12T03:41:40;17.00;99.90
1355;DHT22;671;48.972;9.276;2023-09-12T03:44:06;17.00;99.90
1355;DHT22;671;48.972;9.276;2023-09-12T03:46:33;17.00;99.90
1355;DHT22;671;48.972;9.276;2023-09-12T03:48:59;17.00;99.90
1355;DHT22;671;48.972;9.276;2023-09-12T03:51:26;17.00;99.90
1355;DHT22;671;48.972;9.276;2023-09-12T03:53:52;17.00;99.90
1355;DHT22;671;48.972;9.276;2023-09-12T03:56:19;17.00;99.90
1355;DHT22;671;48.972;9.276;2023-09-12T03:58:46;17.00;99.90
1355;DHT22;671;48.972;9.276;2023-09-12T04:01:13;16.90;99.90
1355;DHT22;671;48.972;9.276;2023-09-12T04:03:40;17.00;99.90
1355;DHT22;671;48.972;9.276;2023-09-12T04:06:06;17.00;99.90
1355;DHT22;671;48.972;9.276;2023-09-12T04:08:33;17.00;99.90
1355;DHT22;671;48.972;9.276;2023-09-12T04:10:59;17.00;99.90
1355;DHT22;671;48.972;9.276;2023-09-12T04:13:26;17.00;99.90
1355;DHT22;671;48.972;9.276;2023-09-12T04:15:52;17.00;99.90
1355;DHT22;671;48.972;9.276;2023-09-12T04:18:19;17.10;99.90
1355;DHT22;671;48.972;9.276;2023-09-12T04:20:45;17.10;99.90
1355;DHT22;671;48.972;9.276;2023-09-12T04:23:12;17.20;99.90
1355;DHT22;671;48.972;9.276;2023-09-12T04:25:42;17.20;99.90
1355;DHT22;671;48.972;9.276;2023-09-12T04:28:08;17.20;99.90
1355;DHT22;671;48.972;9.276;2023-09-12T04:30:35;17.30;99.90
1355;DHT22;671;48.972;9.276;2023-09-12T04:33:02;17.30;99.90
1355;DHT22;671;48.972;9.276;2023-09-12T04:35:29;17.40;99.90
1355;DHT22;671;48.972;9.276;2023-09-12T04:37:58;17.40;99.90
1355;DHT22;671;48.972;9.276;2023-09-12T04:40:25;17.40;99.90
1355;DHT22;671;48.972;9.276;2023-09-12T04:42:51;17.40;99.90
1355;DHT22;671;48.972;9.276;2023-09-12T04:45:18;17.40;99.90
1355;DHT22;671;48.972;9.276;2023-09-12T04:47:44;17.50;99.90
1355;DHT22;671;48.972;9.276;2023-09-12T04:50:11;17.50;99.90
1355;DHT22;671;48.972;9.276;2023-09-12T04:52:38;17.50;99.90
1355;DHT22;671;48.972;9.276;2023-09-12T04:55:04;17.60;99.90
1355;DHT22;671;48.972;9.276;2023-09-12T04:57:30;17.60;99.90
1355;DHT22;671;48.972;9.276;2023-09-12T04:59:57;17.70;99.90
1355;DHT22;671;48.972;9.276;2023-09-12T05:02:24;17.70;99.90
1355;DHT22;671;48.972;9.276;2023-09-12T05:04:51;17.70;99.90
1355;DHT22;671;48.972;9.276;2023-09-12T05:07:18;17.70;99.90
1355;DHT22;671;48.972;9.276;2023-09-12T05:09:45;17.80;99.90
1355;DHT22;671;48.972;9.276;2023-09-12T05:12:11;17.80;99.90
1355;DHT22;671;48.972;9.276;2023-09-12T05:14:38;17.80;99.90
1355;DHT22;671;48.972;9.276;2023-09-12T05:17:04;17.90;99.90
1355;DHT22;671;48.972;9.276;2023-09-12T05:19:31;17.90;99.90
1355;DHT22;671;48.972;9.276;2023-09-12T05:21:57;18.00;99.90
1355;DHT22;671;48.972;9.276;2023-09-12T05:24:24;18.10;99.90
1355;DHT22;671;48.972;9.276;2023-09-12T05:26:50;18.20;99.90
1355;DHT22;671;48.972;9.276;2023-09-12T05:29:17;18.20;99.90
1355;DHT22;671;48.972;9.276;2023-09-12T05:31:43;18.40;99.90
1355;DHT22;671;48.972;9.276;2023-09-12T05:34:10;18.40;99.90
1355;DHT22;671;48.972;9.276;2023-09-12T05:36:36;18.50;99.90
1355;DHT22;671;48.972;9.276;2023-09-12T05:39:03;18.50;99.90
1355;DHT22;671;48.972;9.276;2023-09-12T05:41:30;18.60;99.90
1355;DHT22;671;48.972;9.276;2023-09-12T05:43:56;18.70;99.90
1355;DHT22;671;48.972;9.276;2023-09-12T05:46:23;18.70;99.90
1355;DHT22;671;48.972;9.276;2023-09-12T05:48:49;18.80;99.90
1355;DHT22;671;48.972;9.276;2023-09-12T05:51:15;18.80;99.90
1355;DHT22;671;48.972;9.276;2023-09-12T05:53:42;18.90;99.90
1355;DHT22;671;48.972;9.276;2023-09-12T05:56:09;18.80;99.90
1355;DHT22;671;48.972;9.276;2023-09-12T05:58:35;18.90;99.90
1355;DHT22;671;48.972;9.276;2023-09-12T06:01:02;18.90;99.90
1355;DHT22;671;48.972;9.276;2023-09-12T06:03:29;19.00;99.90
1355;DHT22;671;48.972;9.276;2023-09-12T06:05:55;19.10;99.90
1355;DHT22;671;48.972;9.276;2023-09-12T06:08:22;19.20;99.90
1355;DHT22;671;48.972;9.276;2023-09-12T06:10:48;19.30;99.90
1355;DHT22;671;48.972;9.276;2023-09-12T06:13:15;19.30;99.90
1355;DHT22;671;48.972;9.276;2023-09-12T06:15:41;19.40;99.90
1355;DHT22;671;48.972;9.276;2023-09-12T06:18:08;19.50;99.90
1355;DHT22;671;48.972;9.276;2023-09-12T06:20:34;19.60;99.90
1355;DHT22;671;48.972;9.276;2023-09-12T06:23:01;19.70;99.90
1355;DHT22;671;48.972;9.276;2023-09-12T06:25:27;19.90;99.90
1355;DHT22;671;48.972;9.276;2023-09-12T06:30:37;20.10;99.90
1355;DHT22;671;48.972;9.276;2023-09-12T06:33:03;20.20;99.90
1355;DHT22;671;48.972;9.276;2023-09-12T06:38:12;20.50;99.90
1355;DHT22;671;48.972;9.276;2023-09-12T06:40:38;20.80;99.90
1355;DHT22;671;48.972;9.276;2023-09-12T06:43:04;21.00;99.90
1355;DHT22;671;48.972;9.276;2023-09-12T06:45:31;21.10;99.90
1355;DHT22;671;48.972;9.276;2023-09-12T06:48:02;21.20;99.90
1355;DHT22;671;48.972;9.276;2023-09-12T06:50:28;21.40;99.90
1355;DHT22;671;48.972;9.276;2023-09-12T06:52:55;21.60;99.90
1355;DHT22;671;48.972;9.276;2023-09-12T06:55:21;21.70;99.90
1355;DHT22;671;48.972;9.276;2023-09-12T06:57:48;21.80;99.90
1355;DHT22;671;48.972;9.276;2023-09-12T07:00:14;21.80;99.90
1355;DHT22;671;48.972;9.276;2023-09-12T07:02:41;21.90;99.90
1355;DHT22;671;48.972;9.276;2023-09-12T07:05:08;22.00;99.90
1355;DHT22;671;48.972;9.276;2023-09-12T07:07:34;22.10;99.90
1355;DHT22;671;48.972;9.276;2023-09-12T07:10:01;22.30;99.90
1355;DHT22;671;48.972;9.276;2023-09-12T07:12:27;22.40;99.90
1355;DHT22;671;48.972;9.276;2023-09-12T07:14:55;22.50;99.90
1355;DHT22;671;48.972;9.276;2023-09-12T07:17:22;22.50;99.90
1355;DHT22;671;48.972;9.276;2023-09-12T07:19:48;22.60;99.90
1355;DHT22;671;48.972;9.276;2023-09-12T07:22:15;22.70;99.90
1355;DHT22;671;48.972;9.276;2023-09-12T07:24:41;22.90;99.90
1355;DHT22;671;48.972;9.276;2023-09-12T07:27:08;22.90;99.90
1355;DHT22;671;48.972;9.276;2023-09-12T07:29:34;23.00;99.90
1355;DHT22;671;48.972;9.276;2023-09-12T07:32:01;23.00;99.90
1355;DHT22;671;48.972;9.276;2023-09-12T07:34:27;23.10;99.90
1355;DHT22;671;48.972;9.276;2023-09-12T07:36:54;23.10;99.90
1355;DHT22;671;48.972;9.276;2023-09-12T07:39:20;23.10;99.90
1355;DHT22;671;48.972;9.276;2023-09-12T07:41:47;23.10;99.90
1355;DHT22;671;48.972;9.276;2023-09-12T07:44:13;23.10;99.90
1355;DHT22;671;48.972;9.276;2023-09-12T07:46:42;23.20;99.90
1355;DHT22;671;48.972;9.276;2023-09-12T07:49:08;23.30;99.90
1355;DHT22;671;48.972;9.276;2023-09-12T07:51:35;23.40;99.90
1355;DHT22;671;48.972;9.276;2023-09-12T07:54:02;23.40;99.90
1355;DHT22;671;48.972;9.276;2023-09-12T07:56:28;23.40;99.90
1355;DHT22;671;48.972;9.276;2023-09-12T07:58:57;23.50;99.90
1355;DHT22;671;48.972;9.276;2023-09-12T08:01:23;23.50;99.90
1355;DHT22;671;48.972;9.276;2023-09-12T08:03:50;23.50;99.90
1355;DHT22;671;48.972;9.276;2023-09-12T08:06:17;23.50;99.90
1355;DHT22;671;48.972;9.276;2023-09-12T08:08:43;23.60;99.90
1355;DHT22;671;48.972;9.276;2023-09-12T08:11:10;23.60;99.90
1355;DHT22;671;48.972;9.276;2023-09-12T08:13:36;23.70;99.90
1355;DHT22;671;48.972;9.276;2023-09-12T08:16:03;23.80;99.90
1355;DHT22;671;48.972;9.276;2023-09-12T08:18:30;23.90;99.90
1355;DHT22;671;48.972;9.276;2023-09-12T08:20:57;23.90;99.90
1355;DHT22;671;48.972;9.276;2023-09-12T08:23:23;24.00;99.90
1355;DHT22;671;48.972;9.276;2023-09-12T08:25:50;24.00;99.90
1355;DHT22;671;48.972;9.276;2023-09-12T08:28:17;24.20;99.90
1355;DHT22;671;48.972;9.276;2023-09-12T08:30:45;24.20;99.90
1355;DHT22;671;48.972;9.276;2023-09-12T08:33:12;24.40;99.90
1355;DHT22;671;48.972;9.276;2023-09-12T08:35:39;24.50;99.90
1355;DHT22;671;48.972;9.276;2023-09-12T08:38:05;24.60;99.90
1355;DHT22;671;48.972;9.276;2023-09-12T08:40:35;24.70;99.90
1355;DHT22;671;48.972;9.276;2023-09-12T08:43:02;24.60;99.90
1355;DHT22;671;48.972;9.276;2023-09-12T08:45:31;24.70;99.90
1355;DHT22;671;48.972;9.276;2023-09-12T08:47:59;24.70;99.90
1355;DHT22;671;48.972;9.276;2023-09-12T08:50:29;24.70;99.90
1355;DHT22;671;48.972;9.276;2023-09-12T08:52:59;24.70;99.90
1355;DHT22;671;48.972;9.276;2023-09-12T08:55:26;24.70;99.90
1355;DHT22;671;48.972;9.276;2023-09-12T08:57:53;24.70;99.90
1355;DHT22;671;48.972;9.276;2023-09-12T09:00:22;24.70;99.90
1355;DHT22;671;48.972;9.276;2023-09-12T09:02:50;24.80;99.90
1355;DHT22;671;48.972;9.276;2023-09-12T09:05:17;24.90;99.90
1355;DHT22;671;48.972;9.276;2023-09-12T09:07:44;24.90;99.90
1355;DHT22;671;48.972;9.276;2023-09-12T09:10:18;25.00;99.90
1355;DHT22;671;48.972;9.276;2023-09-12T09:12:46;25.20;99.90
1355;DHT22;671;48.972;9.276;2023-09-12T09:15:22;25.30;99.90
1355;DHT22;671;48.972;9.276;2023-09-12T09:17:50;25.40;99.90
1355;DHT22;671;48.972;9.276;2023-09-12T09:20:26;25.50;99.90
1355;DHT22;671;48.972;9.276;2023-09-12T09:22:59;25.70;99.90
1355;DHT22;671;48.972;9.276;2023-09-12T09:25:27;25.80;99.90
1355;DHT22;671;48.972;9.276;2023-09-12T09:27:53;25.90;99.90
1355;DHT22;671;48.972;9.276;2023-09-12T09:30:44;26.00;99.90
1355;DHT22;671;48.972;9.276;2023-09-12T09:33:12;26.00;99.90
1355;DHT22;671;48.972;9.276;2023-09-12T09:35:43;26.10;99.90
1355;DHT22;671;48.972;9.276;2023-09-12T09:38:11;26.20;99.90
1355;DHT22;671;48.972;9.276;2023-09-12T09:40:43;26.40;99.90
1355;DHT22;671;48.972;9.276;2023-09-12T09:43:10;26.40;99.90
1355;DHT22;671;48.972;9.276;2023-09-12T09:45:45;26.50;99.90
1355;DHT22;671;48.972;9.276;2023-09-12T09:48:25;26.60;99.90
1355;DHT22;671;48.972;9.276;2023-09-12T09:51:01;26.80;99.90
1355;DHT22;671;48.972;9.276;2023-09-12T09:53:32;26.80;99.90
1355;DHT22;671;48.972;9.276;2023-09-12T09:56:10;27.00;99.90
1355;DHT22;671;48.972;9.276;2023-09-12T09:58:52;27.00;99.90
1355;DHT22;671;48.972;9.276;2023-09-12T10:01:27;27.10;99.90
1355;DHT22;671;48.972;9.276;2023-09-12T10:03:58;27.20;99.90
1355;DHT22;671;48.972;9.276;2023-09-12T10:06:27;27.30;99.90
1355;DHT22;671;48.972;9.276;2023-09-12T10:08:54;27.40;99.90
1355;DHT22;671;48.972;9.276;2023-09-12T10:11:23;27.50;99.90
1355;DHT22;671;48.972;9.276;2023-09-12T10:13:54;27.60;99.90
1355;DHT22;671;48.972;9.276;2023-09-12T10:16:23;27.70;99.90
1355;DHT22;671;48.972;9.276;2023-09-12T10:19:32;27.80;99.90
1355;DHT22;671;48.972;9.276;2023-09-12T10:22:09;27.90;99.90
1355;DHT22;671;48.972;9.276;2023-09-12T10:24:39;27.90;99.90
1355;DHT22;671;48.972;9.276;2023-09-12T10:27:08;27.90;99.90
1355;DHT22;671;48.972;9.276;2023-09-12T10:29:35;28.00;99.90
1355;DHT22;671;48.972;9.276;2023-09-12T10:32:02;28.00;99.90
1355;DHT22;671;48.972;9.276;2023-09-12T10:34:30;28.10;99.90
1355;DHT22;671;48.972;9.276;2023-09-12T10:36:58;28.20;99.90
1355;DHT22;671;48.972;9.276;2023-09-12T10:39:27;28.20;99.90
1355;DHT22;671;48.972;9.276;2023-09-12T10:41:55;28.20;99.90
1355;DHT22;671;48.972;9.276;2023-09-12T10:44:23;28.30;99.90
1355;DHT22;671;48.972;9.276;2023-09-12T10:46:51;28.40;99.90
1355;DHT22;671;48.972;9.276;2023-09-12T10:49:19;28.50;99.90
1355;DHT22;671;48.972;9.276;2023-09-12T10:51:47;28.50;99.90
1355;DHT22;671;48.972;9.276;2023-09-12T10:54:15;28.60;99.90
1355;DHT22;671;48.972;9.276;2023-09-12T10:56:43;28.60;99.90
1355;DHT22;671;48.972;9.276;2023-09-12T10:59:13;28.70;99.90
1355;DHT22;671;48.972;9.276;2023-09-12T11:01:43;28.70;99.90
1355;DHT22;671;48.972;9.276;2023-09-12T11:06:49;28.90;99.90
1355;DHT22;671;48.972;9.276;2023-09-12T11:09:23;29.00;99.90
1355;DHT22;671;48.972;9.276;2023-09-12T11:12:03;29.10;99.90
1355;DHT22;671;48.972;9.276;2023-09-12T11:14:31;29.10;99.90
1355;DHT22;671;48.972;9.276;2023-09-12T11:17:22;29.20;99.90
1355;DHT22;671;48.972;9.276;2023-09-12T11:19:50;29.30;99.90
1355;DHT22;671;48.972;9.276;2023-09-12T11:22:28;29.30;99.90
1355;DHT22;671;48.972;9.276;2023-09-12T11:24:55;29.40;99.90
1355;DHT22;671;48.972;9.276;2023-09-12T11:27:31;29.50;99.90
1355;DHT22;671;48.972;9.276;2023-09-12T11:30:07;29.50;99.90
1355;DHT22;671;48.972;9.276;2023-09-12T11:32:36;29.60;99.90
1355;DHT22;671;48.972;9.276;2023-09-12T11:35:07;29.70;99.90
1355;DHT22;671;48.972;9.276;2023-09-12T11:37:34;29.70;99.90
1355;DHT22;671;48.972;9.276;2023-09-12T11:42:59;29.80;99.90
1355;DHT22;671;48.972;9.276;2023-09-12T11:45:25;29.90;99.90
1355;DHT22;671;48.972;9.276;2023-09-12T11:47:52;29.90;99.90
1355;DHT22;671;48.972;9.276;2023-09-12T11:50:34;29.90;99.90
1355;DHT22;671;48.972;9.276;2023-09-12T11:53:07;29.90;99.90
1355;DHT22;671;48.972;9.276;2023-09-12T11:55:44;30.00;99.90
1355;DHT22;671;48.972;9.276;2023-09-12T11:58:15;30.00;99.90
1355;DHT22;671;48.972;9.276;2023-09-12T12:00:47;30.00;99.90
1355;DHT22;671;48.972;9.276;2023-09-12T12:03:14;30.00;99.90
1355;DHT22;671;48.972;9.276;2023-09-12T12:05:41;30.20;99.90
1355;DHT22;671;48.972;9.276;2023-09-12T12:08:08;30.30;99.90
1355;DHT22;671;48.972;9.276;2023-09-12T12:10:36;30.30;99.90
1355;DHT22;671;48.972;9.276;2023-09-12T12:13:16;30.40;99.90
1355;DHT22;671;48.972;9.276;2023-09-12T12:15:42;30.40;99.90
1355;DHT22;671;48.972;9.276;2023-09-12T12:18:09;30.40;99.90
1355;DHT22;671;48.972;9.276;2023-09-12T12:20:36;30.40;99.90
1355;DHT22;671;48.972;9.276;2023-09-12T12:23:02;30.50;99.90
1355;DHT22;671;48.972;9.276;2023-09-12T12:25:33;30.70;99.90
1355;DHT22;671;48.972;9.276;2023-09-12T12:28:04;30.80;99.90
1355;DHT22;671;48.972;9.276;2023-09-12T12:30:31;30.90;99.90
1355;DHT22;671;48.972;9.276;2023-09-12T12:33:01;30.90;99.90
1355;DHT22;671;48.972;9.276;2023-09-12T12:35:28;31.00;99.90
1355;DHT22;671;48.972;9.276;2023-09-12T12:37:55;31.00;99.90
1355;DHT22;671;48.972;9.276;2023-09-12T12:40:23;31.10;99.90
1355;DHT22;671;48.972;9.276;2023-09-12T12:42:49;31.00;99.90
1355;DHT22;671;48.972;9.276;2023-09-12T12:45:19;31.00;99.90
1355;DHT22;671;48.972;9.276;2023-09-12T12:47:45;31.20;99.90
1355;DHT22;671;48.972;9.276;2023-09-12T12:50:13;31.40;99.90
1355;DHT22;671;48.972;9.276;2023-09-12T12:52:40;31.60;99.90
1355;DHT22;671;48.972;9.276;2023-09-12T12:55:09;31.70;99.90
1355;DHT22;671;48.972;9.276;2023-09-12T12:57:40;31.80;99.90
1355;DHT22;671;48.972;9.276;2023-09-12T13:00:15;31.90;99.90
1355;DHT22;671;48.972;9.276;2023-09-12T13:02:42;31.90;99.90
1355;DHT22;671;48.972;9.276;2023-09-12T13:05:29;31.90;99.90
1355;DHT22;671;48.972;9.276;2023-09-12T13:07:56;31.80;99.90
1355;DHT22;671;48.972;9.276;2023-09-12T13:10:23;31.60;99.90
1355;DHT22;671;48.972;9.276;2023-09-12T13:12:50;31.50;99.50
1355;DHT22;671;48.972;9.276;2023-09-12T13:15:17;31.50;99.90
1355;DHT22;671;48.972;9.276;2023-09-12T13:17:44;31.40;99.40
1355;DHT22;671;48.972;9.276;2023-09-12T13:20:11;31.30;99.20
1355;DHT22;671;48.972;9.276;2023-09-12T13:22:38;31.20;99.80
1355;DHT22;671;48.972;9.276;2023-09-12T13:25:05;31.20;99.90
1355;DHT22;671;48.972;9.276;2023-09-12T13:27:32;31.20;99.90
1355;DHT22;671;48.972;9.276;2023-09-12T13:29:59;31.30;99.90
1355;DHT22;671;48.972;9.276;2023-09-12T13:32:26;31.60;99.90
1355;DHT22;671;48.972;9.276;2023-09-12T13:34:55;31.80;99.60
1355;DHT22;671;48.972;9.276;2023-09-12T13:37:22;31.90;99.40
1355;DHT22;671;48.972;9.276;2023-09-12T13:39:48;31.80;99.20
1355;DHT22;671;48.972;9.276;2023-09-12T13:42:16;31.80;99.20
1355;DHT22;671;48.972;9.276;2023-09-12T13:44:47;31.70;99.80
1355;DHT22;671;48.972;9.276;2023-09-12T13:47:14;31.60;99.50
1355;DHT22;671;48.972;9.276;2023-09-12T13:49:48;31.60;99.70
1355;DHT22;671;48.972;9.276;2023-09-12T13:52:14;31.50;99.40
1355;DHT22;671;48.972;9.276;2023-09-12T13:54:41;31.50;99.20
1355;DHT22;671;48.972;9.276;2023-09-12T13:57:07;31.60;99.30
1355;DHT22;671;48.972;9.276;2023-09-12T13:59:34;31.50;99.20
1355;DHT22;671;48.972;9.276;2023-09-12T14:02:00;31.60;98.30
1355;DHT22;671;48.972;9.276;2023-09-12T14:04:27;31.50;98.30
1355;DHT22;671;48.972;9.276;2023-09-12T14:06:53;31.40;97.60
1355;DHT22;671;48.972;9.276;2023-09-12T14:09:20;31.40;98.10
1355;DHT22;671;48.972;9.276;2023-09-12T14:11:48;31.40;98.80
1355;DHT22;671;48.972;9.276;2023-09-12T14:14:14;31.40;99.00
1355;DHT22;671;48.972;9.276;2023-09-12T14:16:43;31.40;98.70
1355;DHT22;671;48.972;9.276;2023-09-12T14:19:11;31.40;98.80
1355;DHT22;671;48.972;9.276;2023-09-12T14:21:37;31.40;98.70
1355;DHT22;671;48.972;9.276;2023-09-12T14:24:05;31.40;98.20
1355;DHT22;671;48.972;9.276;2023-09-12T14:26:31;31.40;98.70
1355;DHT22;671;48.972;9.276;2023-09-12T14:28:58;31.30;98.10
1355;DHT22;671;48.972;9.276;2023-09-12T14:31:24;31.30;98.20
1355;DHT22;671;48.972;9.276;2023-09-12T14:33:51;31.30;98.10
1355;DHT22;671;48.972;9.276;2023-09-12T14:36:18;31.30;98.10
1355;DHT22;671;48.972;9.276;2023-09-12T14:38:45;31.30;98.10
1355;DHT22;671;48.972;9.276;2023-09-12T14:41:12;31.40;97.80
1355;DHT22;671;48.972;9.276;2023-09-12T14:43:39;31.40;98.20
1355;DHT22;671;48.972;9.276;2023-09-12T14:46:06;31.40;97.60
1355;DHT22;671;48.972;9.276;2023-09-12T14:48:34;31.40;97.50
1355;DHT22;671;48.972;9.276;2023-09-12T14:51:02;31.40;97.40
1355;DHT22;671;48.972;9.276;2023-09-12T14:53:29;31.30;96.90
1355;DHT22;671;48.972;9.276;2023-09-12T14:55:56;31.30;97.00
1355;DHT22;671;48.972;9.276;2023-09-12T14:58:22;31.10;96.60
1355;DHT22;671;48.972;9.276;2023-09-12T15:00:49;31.10;97.70
1355;DHT22;671;48.972;9.276;2023-09-12T15:03:15;31.10;98.00
1355;DHT22;671;48.972;9.276;2023-09-12T15:05:42;30.90;97.60
1355;DHT22;671;48.972;9.276;2023-09-12T15:08:09;30.90;97.50
1355;DHT22;671;48.972;9.276;2023-09-12T15:10:36;30.90;97.70
1355;DHT22;671;48.972;9.276;2023-09-12T15:13:03;30.80;97.50
1355;DHT22;671;48.972;9.276;2023-09-12T15:15:29;30.80;97.90
1355;DHT22;671;48.972;9.276;2023-09-12T15:17:56;30.80;97.40
1355;DHT22;671;48.972;9.276;2023-09-12T15:20:23;30.80;97.60
1355;DHT22;671;48.972;9.276;2023-09-12T15:22:49;30.90;97.40
1355;DHT22;671;48.972;9.276;2023-09-12T15:25:16;30.90;97.40
1355;DHT22;671;48.972;9.276;2023-09-12T15:27:42;31.00;96.70
1355;DHT22;671;48.972;9.276;2023-09-12T15:30:09;31.10;97.50
1355;DHT22;671;48.972;9.276;2023-09-12T15:32:36;31.30;97.50
1355;DHT22;671;48.972;9.276;2023-09-12T15:35:02;31.40;97.80
1355;DHT22;671;48.972;9.276;2023-09-12T15:37:29;31.50;96.40
1355;DHT22;671;48.972;9.276;2023-09-12T15:39:56;31.50;96.90
1355;DHT22;671;48.972;9.276;2023-09-12T15:42:22;31.50;97.00
1355;DHT22;671;48.972;9.276;2023-09-12T15:44:49;31.50;97.20
1355;DHT22;671;48.972;9.276;2023-09-12T15:47:15;31.40;97.20
1355;DHT22;671;48.972;9.276;2023-09-12T15:49:42;31.50;97.00
1355;DHT22;671;48.972;9.276;2023-09-12T15:52:09;31.60;96.80
1355;DHT22;671;48.972;9.276;2023-09-12T15:54:35;31.60;97.50
1355;DHT22;671;48.972;9.276;2023-09-12T15:57:02;31.60;96.20
1355;DHT22;671;48.972;9.276;2023-09-12T15:59:29;31.60;96.90
1355;DHT22;671;48.972;9.276;2023-09-12T16:01:57;31.50;97.00
1355;DHT22;671;48.972;9.276;2023-09-12T16:04:24;31.40;95.90
1355;DHT22;671;48.972;9.276;2023-09-12T16:06:52;31.40;95.80
1355;DHT22;671;48.972;9.276;2023-09-12T16:09:19;31.40;96.20
1355;DHT22;671;48.972;9.276;2023-09-12T16:11:46;31.40;95.70
1355;DHT22;671;48.972;9.276;2023-09-12T16:14:12;31.40;96.20
1355;DHT22;671;48.972;9.276;2023-09-12T16:16:39;31.50;95.70
1355;DHT22;671;48.972;9.276;2023-09-12T16:19:06;31.50;96.10
1355;DHT22;671;48.972;9.276;2023-09-12T16:21:34;31.60;96.30
1355;DHT22;671;48.972;9.276;2023-09-12T16:24:00;31.50;95.80
1355;DHT22;671;48.972;9.276;2023-09-12T16:26:27;31.60;95.40
1355;DHT22;671;48.972;9.276;2023-09-12T16:28:53;31.60;95.00
1355;DHT22;671;48.972;9.276;2023-09-12T16:31:20;31.60;95.30
1355;DHT22;671;48.972;9.276;2023-09-12T16:33:47;31.60;97.20